• Join FlightAware (Why Join?)
  • Login
  • US Flag 
10:40AM EST


 

Airport Tracker/Info


-or-


 

Live Flight TrackerFlight Track Log ✈ ASQ5743 ✈ 06-May-2012 ✈ KIAD - KJFK

Flight Track Log - Related Links

Times and Time Zones

All times are in EDT time to prevent confusion due to time zone crossing. See the ASQ5743 flight status page for this flight to view local times or setup timezone preferences in your user account.

Time Position Orientation Groundspeed Altitude Reporting Facility
EDT Latitude Longitude Course Direction KTS MPH feet Rate Location/Type
10:15PM 38.9667 -77.5167 343° North 213 245 1,500  Level Potomac TRACON
10:16PM 39.0500 -77.5500 21° North 272 313 4,000 3,000 Climbing Potomac TRACON
10:17PM 39.1167 -77.5167 63° Northeast 256 295 7,600 2,820 Climbing Potomac TRACON
10:18PM 39.1500 -77.4333 100° East 287 330 9,800 1,140 Climbing Potomac TRACON
10:19PM 39.1333 -77.3167 118° Southeast 367 422 10,000 720 Climbing Potomac TRACON
10:21PM 39.0417 -77.0936 91° East 392 451 12,000 1,080 Climbing Washington Center
10:22PM 39.0392 -76.9464 91° East 389 448 13,200 1,320 Climbing Washington Center
10:23PM 39.0367 -76.7994 91° East 395 455 14,700 1,500 Climbing Washington Center
10:24PM 39.0339 -76.6525 91° East 401 461 16,200 1,140 Climbing Washington Center
10:25PM 39.0328 -76.5081 91° East 401 461 17,000 360 Climbing Washington Center
10:26PM 39.0297 -76.3506 86° East 412 474 17,000  Level Washington Center
10:27PM 39.0389 -76.1903 86° East 419 482 17,000  Level Washington Center
10:28PM 39.0458 -76.0433 84° East 440 506 17,100  Climbing Washington Center
10:29PM 39.0589 -75.8856 68° East 445 512 17,100  Level Washington Center
10:30PM 39.1050 -75.7414 67° East 428 493 17,100  Level Washington Center
10:31PM 39.1508 -75.5997 70° East 428 493 17,100 -60 Level Washington Center
10:32PM 39.1925 -75.4550 68° East 428 493 17,000  Descending Washington Center
10:33PM 39.2361 -75.3128 68° East 428 493 17,100  Climbing Washington Center
10:34PM 39.2814 -75.1653 68° East 434 499 17,000 -60 Descending Washington Center
10:36PM 39.3497 -74.9403 68° East 427 491 17,000  Level New York Center
10:37PM 39.3944 -74.7953 65° Northeast 427 491 17,000  Level New York Center
10:38PM 39.4428 -74.6581 46° Northeast 427 491 17,000  Level New York Center
10:39PM 39.5236 -74.5494 46° Northeast 412 474 17,000  Level New York Center
10:40PM 39.6108 -74.4303 47° Northeast 412 474 17,100  Climbing New York Center
10:41PM 39.6892 -74.3211 46° Northeast 412 474 17,100  Level New York Center
10:42PM 39.7694 -74.2117 47° Northeast 412 474 17,100 -900 Level New York Center
10:43PM 39.8392 -74.1150 46° Northeast 407 468 15,300 -2,040 Descending New York Center
10:44PM 39.9172 -74.0078 48° Northeast 394 453 13,000 -2,160 Descending New York Center
10:45PM 39.9778 -73.9214 35° Northeast 343 395 11,100 -1,020 Descending New York Center
10:46PM 40.0397 -73.8644 20° North 290 334 11,000 -480 Descending New York Center
10:47PM 40.1031 -73.8347 12° North 269 310 10,200 -1,260 Descending New York Center
10:48PM 40.1722 -73.8161 326° Northwest 252 290 8,500 -1,800 Descending New York Center
10:49PM 40.2375 -73.8733 346° North 239 275 6,700 -1,440 Descending New York Center
10:50PM 40.3056 -73.8956 346° North 246 283 5,700 -960 Descending New York Center
10:51PM 40.3758 -73.9178 346° North 251 289 4,800 -1,020 Descending New York Center
10:52PM 40.4461 -73.9400 346° North 256 295 3,700 -840 Descending New York Center
10:53PM 40.5039 -73.9592 12° North 239 275 3,200 -660 Descending New York Center
10:54PM 40.5544 -73.9450 34° Northeast 188 216 2,400 -780 Descending New York Center
10:55PM 40.5950 -73.9086 28° Northeast 180 207 1,700 -600 Descending New York Center
10:56PM 40.6458 -73.8728 59° Northeast 188 216 1,200 -540 Descending New York Center
10:57PM 40.6658 -73.8297 124° Southeast 157 181 700 -540 Descending New York Center
11:05PM 40.2337 -72.9987 124° Southeast  Level Estimated